sensor_id;sensor_type;location;lat;lon;timestamp;P1;durP1;ratioP1;P2;durP2;ratioP2
21183;SDS011;18176;49.502;11.754;2024-03-06T00:04:05;20.73;;;11.47;;
21183;SDS011;18176;49.502;11.754;2024-03-06T00:08:26;17.77;;;10.63;;
21183;SDS011;18176;49.502;11.754;2024-03-06T00:12:47;17.27;;;10.50;;
21183;SDS011;18176;49.502;11.754;2024-03-06T00:17:10;18.90;;;11.30;;
21183;SDS011;18176;49.502;11.754;2024-03-06T00:21:31;17.57;;;11.10;;
21183;SDS011;18176;49.502;11.754;2024-03-06T00:25:53;19.03;;;12.17;;
21183;SDS011;18176;49.502;11.754;2024-03-06T00:30:13;22.60;;;12.27;;
21183;SDS011;18176;49.502;11.754;2024-03-06T00:34:36;26.30;;;13.67;;
21183;SDS011;18176;49.502;11.754;2024-03-06T00:38:57;21.60;;;12.17;;
21183;SDS011;18176;49.502;11.754;2024-03-06T00:43:21;21.80;;;12.63;;
21183;SDS011;18176;49.502;11.754;2024-03-06T00:47:42;22.23;;;12.90;;
21183;SDS011;18176;49.502;11.754;2024-03-06T00:52:05;23.37;;;12.37;;
21183;SDS011;18176;49.502;11.754;2024-03-06T00:56:26;25.73;;;13.57;;
21183;SDS011;18176;49.502;11.754;2024-03-06T01:00:47;24.00;;;12.47;;
21183;SDS011;18176;49.502;11.754;2024-03-06T01:05:08;23.10;;;12.87;;
21183;SDS011;18176;49.502;11.754;2024-03-06T01:09:32;24.30;;;13.20;;
21183;SDS011;18176;49.502;11.754;2024-03-06T01:13:53;19.77;;;12.13;;
21183;SDS011;18176;49.502;11.754;2024-03-06T01:18:14;19.27;;;11.70;;
21183;SDS011;18176;49.502;11.754;2024-03-06T01:22:34;20.03;;;12.83;;
21183;SDS011;18176;49.502;11.754;2024-03-06T01:26:57;21.10;;;12.50;;
21183;SDS011;18176;49.502;11.754;2024-03-06T01:31:19;23.40;;;13.43;;
21183;SDS011;18176;49.502;11.754;2024-03-06T01:35:40;24.67;;;13.60;;
21183;SDS011;18176;49.502;11.754;2024-03-06T01:40:01;22.80;;;13.00;;
21183;SDS011;18176;49.502;11.754;2024-03-06T01:44:24;23.67;;;13.80;;
21183;SDS011;18176;49.502;11.754;2024-03-06T01:48:45;24.33;;;14.37;;
21183;SDS011;18176;49.502;11.754;2024-03-06T01:53:07;25.50;;;14.47;;
21183;SDS011;18176;49.502;11.754;2024-03-06T01:57:29;25.07;;;14.17;;
21183;SDS011;18176;49.502;11.754;2024-03-06T02:01:54;24.63;;;14.83;;
21183;SDS011;18176;49.502;11.754;2024-03-06T02:06:15;24.80;;;13.33;;
21183;SDS011;18176;49.502;11.754;2024-03-06T02:10:37;25.27;;;14.17;;
21183;SDS011;18176;49.502;11.754;2024-03-06T02:14:58;26.23;;;14.50;;
21183;SDS011;18176;49.502;11.754;2024-03-06T02:19:22;26.13;;;13.97;;
21183;SDS011;18176;49.502;11.754;2024-03-06T02:23:46;22.90;;;12.97;;
21183;SDS011;18176;49.502;11.754;2024-03-06T02:28:08;25.20;;;14.67;;
21183;SDS011;18176;49.502;11.754;2024-03-06T02:32:28;26.07;;;14.03;;
21183;SDS011;18176;49.502;11.754;2024-03-06T02:36:49;26.70;;;14.33;;
21183;SDS011;18176;49.502;11.754;2024-03-06T02:41:13;25.57;;;13.40;;
21183;SDS011;18176;49.502;11.754;2024-03-06T02:45:34;25.00;;;13.63;;
21183;SDS011;18176;49.502;11.754;2024-03-06T02:49:55;25.27;;;13.70;;
21183;SDS011;18176;49.502;11.754;2024-03-06T02:54:16;25.50;;;13.70;;
21183;SDS011;18176;49.502;11.754;2024-03-06T02:58:39;23.97;;;13.13;;
21183;SDS011;18176;49.502;11.754;2024-03-06T03:03:00;22.77;;;12.47;;
21183;SDS011;18176;49.502;11.754;2024-03-06T03:07:20;24.20;;;13.10;;
21183;SDS011;18176;49.502;11.754;2024-03-06T03:11:42;24.40;;;13.60;;
21183;SDS011;18176;49.502;11.754;2024-03-06T03:16:06;24.73;;;13.90;;
21183;SDS011;18176;49.502;11.754;2024-03-06T03:20:27;24.70;;;13.30;;
21183;SDS011;18176;49.502;11.754;2024-03-06T03:24:48;28.97;;;14.67;;
21183;SDS011;18176;49.502;11.754;2024-03-06T03:29:08;29.93;;;14.90;;
21183;SDS011;18176;49.502;11.754;2024-03-06T03:33:32;32.80;;;15.77;;
21183;SDS011;18176;49.502;11.754;2024-03-06T03:37:53;31.10;;;16.33;;
21183;SDS011;18176;49.502;11.754;2024-03-06T03:42:15;27.83;;;14.80;;
21183;SDS011;18176;49.502;11.754;2024-03-06T03:46:36;32.93;;;16.13;;
21183;SDS011;18176;49.502;11.754;2024-03-06T03:50:59;29.47;;;14.87;;
21183;SDS011;18176;49.502;11.754;2024-03-06T03:55:20;30.27;;;14.97;;
21183;SDS011;18176;49.502;11.754;2024-03-06T03:59:40;31.80;;;15.17;;
21183;SDS011;18176;49.502;11.754;2024-03-06T04:04:01;29.87;;;14.53;;
21183;SDS011;18176;49.502;11.754;2024-03-06T04:08:26;32.80;;;15.10;;
21183;SDS011;18176;49.502;11.754;2024-03-06T04:12:47;29.40;;;15.93;;
21183;SDS011;18176;49.502;11.754;2024-03-06T04:17:08;33.37;;;16.47;;
21183;SDS011;18176;49.502;11.754;2024-03-06T04:21:28;35.53;;;16.97;;
21183;SDS011;18176;49.502;11.754;2024-03-06T04:25:52;35.03;;;17.10;;
21183;SDS011;18176;49.502;11.754;2024-03-06T04:30:13;35.33;;;18.10;;
21183;SDS011;18176;49.502;11.754;2024-03-06T04:34:33;37.53;;;18.20;;
21183;SDS011;18176;49.502;11.754;2024-03-06T04:38:55;38.57;;;19.40;;
21183;SDS011;18176;49.502;11.754;2024-03-06T04:43:18;38.63;;;19.20;;
21183;SDS011;18176;49.502;11.754;2024-03-06T04:47:38;38.37;;;19.33;;
21183;SDS011;18176;49.502;11.754;2024-03-06T04:51:59;36.67;;;19.53;;
21183;SDS011;18176;49.502;11.754;2024-03-06T04:56:20;41.73;;;19.23;;
21183;SDS011;18176;49.502;11.754;2024-03-06T05:00:43;39.33;;;19.87;;
21183;SDS011;18176;49.502;11.754;2024-03-06T05:05:04;33.33;;;18.53;;
21183;SDS011;18176;49.502;11.754;2024-03-06T05:09:39;39.63;;;20.37;;
21183;SDS011;18176;49.502;11.754;2024-03-06T05:14:14;39.63;;;19.50;;
21183;SDS011;18176;49.502;11.754;2024-03-06T05:18:54;41.00;;;20.23;;
21183;SDS011;18176;49.502;11.754;2024-03-06T05:23:28;37.10;;;19.57;;
21183;SDS011;18176;49.502;11.754;2024-03-06T05:28:03;37.53;;;19.63;;
21183;SDS011;18176;49.502;11.754;2024-03-06T05:32:38;42.53;;;20.87;;
21183;SDS011;18176;49.502;11.754;2024-03-06T05:37:15;43.50;;;20.93;;
21183;SDS011;18176;49.502;11.754;2024-03-06T05:41:50;38.70;;;20.40;;
21183;SDS011;18176;49.502;11.754;2024-03-06T05:46:25;48.47;;;22.83;;
21183;SDS011;18176;49.502;11.754;2024-03-06T05:50:59;45.80;;;22.17;;
21183;SDS011;18176;49.502;11.754;2024-03-06T05:55:36;47.40;;;22.30;;
21183;SDS011;18176;49.502;11.754;2024-03-06T06:00:11;50.33;;;23.47;;
21183;SDS011;18176;49.502;11.754;2024-03-06T06:04:35;49.73;;;22.97;;
21183;SDS011;18176;49.502;11.754;2024-03-06T06:09:07;47.87;;;23.03;;
21183;SDS011;18176;49.502;11.754;2024-03-06T06:13:35;54.37;;;24.77;;
21183;SDS011;18176;49.502;11.754;2024-03-06T06:17:56;52.30;;;24.07;;
21183;SDS011;18176;49.502;11.754;2024-03-06T06:22:17;54.40;;;24.20;;
21183;SDS011;18176;49.502;11.754;2024-03-06T06:26:38;49.43;;;23.20;;
21183;SDS011;18176;49.502;11.754;2024-03-06T06:31:02;53.57;;;24.53;;
21183;SDS011;18176;49.502;11.754;2024-03-06T06:35:23;48.03;;;24.00;;
21183;SDS011;18176;49.502;11.754;2024-03-06T06:39:44;54.47;;;24.57;;
21183;SDS011;18176;49.502;11.754;2024-03-06T06:44:05;53.87;;;25.00;;
21183;SDS011;18176;49.502;11.754;2024-03-06T06:48:28;50.83;;;23.97;;
21183;SDS011;18176;49.502;11.754;2024-03-06T06:52:50;51.43;;;23.80;;
21183;SDS011;18176;49.502;11.754;2024-03-06T06:57:11;51.17;;;24.90;;
21183;SDS011;18176;49.502;11.754;2024-03-06T07:01:32;45.73;;;22.83;;
21183;SDS011;18176;49.502;11.754;2024-03-06T07:05:55;46.47;;;23.10;;
21183;SDS011;18176;49.502;11.754;2024-03-06T07:10:16;49.87;;;24.57;;
21183;SDS011;18176;49.502;11.754;2024-03-06T07:14:37;50.47;;;24.53;;
21183;SDS011;18176;49.502;11.754;2024-03-06T07:18:58;49.43;;;23.97;;
21183;SDS011;18176;49.502;11.754;2024-03-06T07:23:21;53.47;;;24.10;;
21183;SDS011;18176;49.502;11.754;2024-03-06T07:27:42;49.13;;;22.60;;
21183;SDS011;18176;49.502;11.754;2024-03-06T07:32:04;45.90;;;22.37;;
21183;SDS011;18176;49.502;11.754;2024-03-06T07:36:25;41.53;;;21.73;;
21183;SDS011;18176;49.502;11.754;2024-03-06T07:40:48;44.17;;;22.80;;
21183;SDS011;18176;49.502;11.754;2024-03-06T07:45:09;46.27;;;22.03;;
21183;SDS011;18176;49.502;11.754;2024-03-06T07:49:32;42.50;;;21.57;;
21183;SDS011;18176;49.502;11.754;2024-03-06T07:53:52;45.97;;;22.50;;
21183;SDS011;18176;49.502;11.754;2024-03-06T07:58:16;43.20;;;21.60;;
21183;SDS011;18176;49.502;11.754;2024-03-06T08:02:38;40.10;;;21.03;;
21183;SDS011;18176;49.502;11.754;2024-03-06T08:06:59;43.83;;;21.90;;
21183;SDS011;18176;49.502;11.754;2024-03-06T08:11:20;41.90;;;21.97;;
21183;SDS011;18176;49.502;11.754;2024-03-06T08:15:44;45.30;;;22.87;;
21183;SDS011;18176;49.502;11.754;2024-03-06T08:20:05;41.57;;;21.57;;
21183;SDS011;18176;49.502;11.754;2024-03-06T08:24:28;41.80;;;21.27;;
21183;SDS011;18176;49.502;11.754;2024-03-06T08:28:49;45.73;;;22.87;;
21183;SDS011;18176;49.502;11.754;2024-03-06T08:33:12;39.53;;;21.77;;
21183;SDS011;18176;49.502;11.754;2024-03-06T08:37:35;39.97;;;21.33;;
21183;SDS011;18176;49.502;11.754;2024-03-06T08:41:56;41.20;;;21.27;;
21183;SDS011;18176;49.502;11.754;2024-03-06T08:46:17;42.03;;;21.63;;
21183;SDS011;18176;49.502;11.754;2024-03-06T08:50:40;43.07;;;21.90;;
21183;SDS011;18176;49.502;11.754;2024-03-06T08:55:01;37.87;;;20.73;;
21183;SDS011;18176;49.502;11.754;2024-03-06T08:59:23;39.57;;;21.30;;
21183;SDS011;18176;49.502;11.754;2024-03-06T09:03:44;36.73;;;20.07;;
21183;SDS011;18176;49.502;11.754;2024-03-06T09:08:07;40.57;;;21.33;;
21183;SDS011;18176;49.502;11.754;2024-03-06T09:12:30;37.13;;;20.57;;
21183;SDS011;18176;49.502;11.754;2024-03-06T09:16:51;37.80;;;20.60;;
21183;SDS011;18176;49.502;11.754;2024-03-06T09:21:12;39.83;;;22.10;;
21183;SDS011;18176;49.502;11.754;2024-03-06T09:25:35;40.50;;;21.80;;
21183;SDS011;18176;49.502;11.754;2024-03-06T09:29:57;45.40;;;22.53;;
21183;SDS011;18176;49.502;11.754;2024-03-06T09:34:20;44.47;;;23.53;;
21183;SDS011;18176;49.502;11.754;2024-03-06T09:38:41;45.67;;;23.73;;
21183;SDS011;18176;49.502;11.754;2024-03-06T09:43:04;44.77;;;23.90;;
21183;SDS011;18176;49.502;11.754;2024-03-06T09:47:24;37.63;;;20.70;;
21183;SDS011;18176;49.502;11.754;2024-03-06T09:51:51;40.07;;;22.20;;
21183;SDS011;18176;49.502;11.754;2024-03-06T09:56:15;40.30;;;21.43;;
21183;SDS011;18176;49.502;11.754;2024-03-06T10:00:39;40.63;;;20.83;;
21183;SDS011;18176;49.502;11.754;2024-03-06T10:05:01;36.13;;;20.47;;
21183;SDS011;18176;49.502;11.754;2024-03-06T10:09:23;35.60;;;19.53;;
21183;SDS011;18176;49.502;11.754;2024-03-06T10:13:46;34.17;;;18.13;;
21183;SDS011;18176;49.502;11.754;2024-03-06T10:18:14;31.55;;;17.25;;
21183;SDS011;18176;49.502;11.754;2024-03-06T10:22:36;28.85;;;17.38;;
21183;SDS011;18176;49.502;11.754;2024-03-06T10:26:58;29.33;;;16.25;;
21183;SDS011;18176;49.502;11.754;2024-03-06T10:31:26;27.15;;;16.15;;
21183;SDS011;18176;49.502;11.754;2024-03-06T10:35:50;27.02;;;15.73;;
21183;SDS011;18176;49.502;11.754;2024-03-06T10:40:11;28.60;;;15.93;;
21183;SDS011;18176;49.502;11.754;2024-03-06T10:44:36;25.73;;;15.07;;
21183;SDS011;18176;49.502;11.754;2024-03-06T10:49:04;27.90;;;16.23;;
21183;SDS011;18176;49.502;11.754;2024-03-06T10:53:28;27.80;;;15.60;;
21183;SDS011;18176;49.502;11.754;2024-03-06T10:57:52;26.10;;;15.90;;
21183;SDS011;18176;49.502;11.754;2024-03-06T11:02:15;26.38;;;14.77;;
21183;SDS011;18176;49.502;11.754;2024-03-06T11:06:39;27.80;;;15.15;;
21183;SDS011;18176;49.502;11.754;2024-03-06T11:15:44;22.80;;;13.40;;
21183;SDS011;18176;49.502;11.754;2024-03-06T11:20:08;25.88;;;14.35;;
21183;SDS011;18176;49.502;11.754;2024-03-06T11:24:39;27.17;;;14.82;;
21183;SDS011;18176;49.502;11.754;2024-03-06T11:29:02;24.13;;;14.13;;
21183;SDS011;18176;49.502;11.754;2024-03-06T11:33:22;24.75;;;14.23;;
21183;SDS011;18176;49.502;11.754;2024-03-06T11:37:46;24.67;;;13.77;;
21183;SDS011;18176;49.502;11.754;2024-03-06T11:42:06;26.08;;;14.73;;
21183;SDS011;18176;49.502;11.754;2024-03-06T11:51:17;22.98;;;13.73;;
21183;SDS011;18176;49.502;11.754;2024-03-06T11:55:38;20.58;;;12.43;;
21183;SDS011;18176;49.502;11.754;2024-03-06T12:00:02;24.23;;;14.13;;
21183;SDS011;18176;49.502;11.754;2024-03-06T12:04:29;24.85;;;14.32;;
21183;SDS011;18176;49.502;11.754;2024-03-06T12:08:51;22.55;;;13.50;;
21183;SDS011;18176;49.502;11.754;2024-03-06T12:13:13;21.52;;;13.57;;
21183;SDS011;18176;49.502;11.754;2024-03-06T12:17:41;21.70;;;12.98;;
21183;SDS011;18176;49.502;11.754;2024-03-06T12:22:10;23.38;;;12.63;;
21183;SDS011;18176;49.502;11.754;2024-03-06T12:26:32;22.17;;;13.25;;
21183;SDS011;18176;49.502;11.754;2024-03-06T12:30:53;20.02;;;12.70;;
21183;SDS011;18176;49.502;11.754;2024-03-06T12:35:23;21.90;;;13.05;;
21183;SDS011;18176;49.502;11.754;2024-03-06T12:39:47;22.67;;;12.88;;
21183;SDS011;18176;49.502;11.754;2024-03-06T12:44:08;18.92;;;11.95;;
21183;SDS011;18176;49.502;11.754;2024-03-06T12:48:29;19.45;;;11.73;;
21183;SDS011;18176;49.502;11.754;2024-03-06T12:52:50;21.98;;;12.40;;
21183;SDS011;18176;49.502;11.754;2024-03-06T12:57:13;21.85;;;11.82;;
21183;SDS011;18176;49.502;11.754;2024-03-06T13:01:34;17.10;;;10.57;;
21183;SDS011;18176;49.502;11.754;2024-03-06T13:05:56;18.73;;;10.80;;
21183;SDS011;18176;49.502;11.754;2024-03-06T13:10:16;16.45;;;10.60;;
21183;SDS011;18176;49.502;11.754;2024-03-06T13:14:41;15.90;;;9.90;;
21183;SDS011;18176;49.502;11.754;2024-03-06T13:19:02;17.05;;;10.05;;
21183;SDS011;18176;49.502;11.754;2024-03-06T13:23:25;15.48;;;10.68;;
21183;SDS011;18176;49.502;11.754;2024-03-06T13:27:46;17.08;;;10.82;;
21183;SDS011;18176;49.502;11.754;2024-03-06T13:32:09;15.85;;;10.73;;
21183;SDS011;18176;49.502;11.754;2024-03-06T13:36:29;18.95;;;11.52;;
21183;SDS011;18176;49.502;11.754;2024-03-06T13:40:50;16.45;;;11.27;;
21183;SDS011;18176;49.502;11.754;2024-03-06T13:45:11;17.33;;;11.43;;
21183;SDS011;18176;49.502;11.754;2024-03-06T13:49:38;20.38;;;11.65;;
21183;SDS011;18176;49.502;11.754;2024-03-06T13:54:00;19.48;;;12.10;;
21183;SDS011;18176;49.502;11.754;2024-03-06T13:58:20;19.83;;;11.85;;
21183;SDS011;18176;49.502;11.754;2024-03-06T14:02:41;19.65;;;11.98;;
21183;SDS011;18176;49.502;11.754;2024-03-06T14:07:05;19.25;;;11.63;;
21183;SDS011;18176;49.502;11.754;2024-03-06T14:11:26;18.75;;;11.88;;
21183;SDS011;18176;49.502;11.754;2024-03-06T14:15:49;17.85;;;11.13;;
21183;SDS011;18176;49.502;11.754;2024-03-06T14:20:10;19.33;;;12.55;;
21183;SDS011;18176;49.502;11.754;2024-03-06T14:24:35;19.30;;;12.80;;
21183;SDS011;18176;49.502;11.754;2024-03-06T14:28:56;21.65;;;13.10;;
21183;SDS011;18176;49.502;11.754;2024-03-06T14:33:17;20.15;;;12.05;;
21183;SDS011;18176;49.502;11.754;2024-03-06T14:37:38;19.38;;;12.55;;
21183;SDS011;18176;49.502;11.754;2024-03-06T14:42:01;22.73;;;12.35;;
21183;SDS011;18176;49.502;11.754;2024-03-06T14:46:23;21.45;;;12.32;;
21183;SDS011;18176;49.502;11.754;2024-03-06T14:50:43;19.70;;;12.32;;
21183;SDS011;18176;49.502;11.754;2024-03-06T14:55:05;19.83;;;12.48;;
21183;SDS011;18176;49.502;11.754;2024-03-06T14:59:30;20.48;;;11.82;;
21183;SDS011;18176;49.502;11.754;2024-03-06T15:03:51;20.73;;;12.55;;
21183;SDS011;18176;49.502;11.754;2024-03-06T15:08:13;18.13;;;11.93;;
21183;SDS011;18176;49.502;11.754;2024-03-06T15:12:35;19.27;;;12.38;;
21183;SDS011;18176;49.502;11.754;2024-03-06T15:17:02;18.10;;;11.40;;
21183;SDS011;18176;49.502;11.754;2024-03-06T15:21:23;19.88;;;11.65;;
21183;SDS011;18176;49.502;11.754;2024-03-06T15:25:43;19.65;;;12.55;;
21183;SDS011;18176;49.502;11.754;2024-03-06T15:30:05;18.30;;;11.75;;
21183;SDS011;18176;49.502;11.754;2024-03-06T15:34:34;17.88;;;10.95;;
21183;SDS011;18176;49.502;11.754;2024-03-06T15:38:54;18.20;;;11.15;;
21183;SDS011;18176;49.502;11.754;2024-03-06T15:43:15;17.05;;;10.45;;
21183;SDS011;18176;49.502;11.754;2024-03-06T15:47:36;18.27;;;10.10;;
21183;SDS011;18176;49.502;11.754;2024-03-06T15:52:01;18.40;;;10.65;;
21183;SDS011;18176;49.502;11.754;2024-03-06T15:56:23;20.05;;;10.55;;
21183;SDS011;18176;49.502;11.754;2024-03-06T16:00:44;16.08;;;9.90;;
21183;SDS011;18176;49.502;11.754;2024-03-06T16:05:05;15.73;;;10.27;;
21183;SDS011;18176;49.502;11.754;2024-03-06T16:09:30;16.40;;;9.40;;
21183;SDS011;18176;49.502;11.754;2024-03-06T16:13:50;14.43;;;9.25;;
21183;SDS011;18176;49.502;11.754;2024-03-06T16:18:15;15.25;;;9.52;;
21183;SDS011;18176;49.502;11.754;2024-03-06T16:22:37;12.60;;;8.33;;
21183;SDS011;18176;49.502;11.754;2024-03-06T16:27:00;13.83;;;8.53;;
21183;SDS011;18176;49.502;11.754;2024-03-06T16:31:20;12.53;;;8.30;;
21183;SDS011;18176;49.502;11.754;2024-03-06T16:35:41;12.53;;;9.00;;
21183;SDS011;18176;49.502;11.754;2024-03-06T16:40:03;15.30;;;9.10;;
21183;SDS011;18176;49.502;11.754;2024-03-06T16:44:30;13.90;;;9.53;;
21183;SDS011;18176;49.502;11.754;2024-03-06T16:48:51;19.00;;;10.10;;
21183;SDS011;18176;49.502;11.754;2024-03-06T16:53:12;13.83;;;9.40;;
21183;SDS011;18176;49.502;11.754;2024-03-06T16:57:33;17.53;;;11.23;;
21183;SDS011;18176;49.502;11.754;2024-03-06T17:01:56;15.27;;;9.53;;
21183;SDS011;18176;49.502;11.754;2024-03-06T17:06:17;15.93;;;9.13;;
21183;SDS011;18176;49.502;11.754;2024-03-06T17:10:39;17.60;;;11.43;;
21183;SDS011;18176;49.502;11.754;2024-03-06T17:15:00;16.17;;;10.77;;
21183;SDS011;18176;49.502;11.754;2024-03-06T17:19:23;18.17;;;11.57;;
21183;SDS011;18176;49.502;11.754;2024-03-06T17:23:44;20.73;;;12.60;;
21183;SDS011;18176;49.502;11.754;2024-03-06T17:28:07;19.57;;;12.33;;
21183;SDS011;18176;49.502;11.754;2024-03-06T17:32:28;24.30;;;13.37;;
21183;SDS011;18176;49.502;11.754;2024-03-06T17:36:51;23.63;;;14.70;;
21183;SDS011;18176;49.502;11.754;2024-03-06T17:41:13;25.37;;;14.83;;
21183;SDS011;18176;49.502;11.754;2024-03-06T17:45:34;21.23;;;13.50;;
21183;SDS011;18176;49.502;11.754;2024-03-06T17:49:55;24.97;;;13.93;;
21183;SDS011;18176;49.502;11.754;2024-03-06T17:54:18;22.27;;;13.90;;
21183;SDS011;18176;49.502;11.754;2024-03-06T17:58:40;23.90;;;15.53;;
21183;SDS011;18176;49.502;11.754;2024-03-06T18:03:01;25.47;;;16.53;;
21183;SDS011;18176;49.502;11.754;2024-03-06T18:07:21;28.93;;;16.23;;
21183;SDS011;18176;49.502;11.754;2024-03-06T18:11:46;26.00;;;15.77;;
21183;SDS011;18176;49.502;11.754;2024-03-06T18:16:07;30.10;;;17.60;;
21183;SDS011;18176;49.502;11.754;2024-03-06T18:20:29;28.33;;;15.53;;
21183;SDS011;18176;49.502;11.754;2024-03-06T18:24:50;25.87;;;15.83;;
21183;SDS011;18176;49.502;11.754;2024-03-06T18:29:14;28.20;;;16.87;;
21183;SDS011;18176;49.502;11.754;2024-03-06T18:33:35;28.27;;;16.77;;
21183;SDS011;18176;49.502;11.754;2024-03-06T18:37:56;29.83;;;17.83;;
21183;SDS011;18176;49.502;11.754;2024-03-06T18:42:18;26.90;;;16.83;;
21183;SDS011;18176;49.502;11.754;2024-03-06T18:46:42;30.70;;;18.80;;
21183;SDS011;18176;49.502;11.754;2024-03-06T18:51:04;29.60;;;17.87;;
21183;SDS011;18176;49.502;11.754;2024-03-06T18:55:25;31.13;;;18.43;;
21183;SDS011;18176;49.502;11.754;2024-03-06T18:59:46;30.07;;;17.63;;
21183;SDS011;18176;49.502;11.754;2024-03-06T19:04:12;29.50;;;18.60;;
21183;SDS011;18176;49.502;11.754;2024-03-06T19:08:35;33.63;;;20.50;;
21183;SDS011;18176;49.502;11.754;2024-03-06T19:12:56;37.40;;;22.30;;
21183;SDS011;18176;49.502;11.754;2024-03-06T19:17:17;33.27;;;20.93;;
21183;SDS011;18176;49.502;11.754;2024-03-06T19:21:41;37.83;;;22.47;;
21183;SDS011;18176;49.502;11.754;2024-03-06T19:26:01;40.77;;;23.10;;
21183;SDS011;18176;49.502;11.754;2024-03-06T19:30:22;37.63;;;23.40;;
21183;SDS011;18176;49.502;11.754;2024-03-06T19:34:44;37.27;;;23.00;;
21183;SDS011;18176;49.502;11.754;2024-03-06T19:39:08;45.67;;;24.33;;
21183;SDS011;18176;49.502;11.754;2024-03-06T19:43:29;39.57;;;23.33;;
21183;SDS011;18176;49.502;11.754;2024-03-06T19:47:56;37.13;;;23.20;;
21183;SDS011;18176;49.502;11.754;2024-03-06T19:52:17;41.57;;;22.77;;
21183;SDS011;18176;49.502;11.754;2024-03-06T19:56:40;41.17;;;24.63;;
21183;SDS011;18176;49.502;11.754;2024-03-06T20:01:01;41.97;;;24.53;;
21183;SDS011;18176;49.502;11.754;2024-03-06T20:05:23;40.83;;;23.30;;
21183;SDS011;18176;49.502;11.754;2024-03-06T20:09:44;39.63;;;23.73;;
21183;SDS011;18176;49.502;11.754;2024-03-06T20:14:08;36.73;;;22.67;;
21183;SDS011;18176;49.502;11.754;2024-03-06T20:18:28;40.13;;;25.03;;
21183;SDS011;18176;49.502;11.754;2024-03-06T20:22:52;40.40;;;23.23;;
21183;SDS011;18176;49.502;11.754;2024-03-06T20:27:16;38.23;;;22.53;;
21183;SDS011;18176;49.502;11.754;2024-03-06T20:31:43;43.27;;;24.10;;
21183;SDS011;18176;49.502;11.754;2024-03-06T20:36:06;43.33;;;24.87;;
21183;SDS011;18176;49.502;11.754;2024-03-06T20:40:28;41.13;;;22.37;;
21183;SDS011;18176;49.502;11.754;2024-03-06T20:44:49;48.40;;;28.50;;
21183;SDS011;18176;49.502;11.754;2024-03-06T20:49:12;44.50;;;26.93;;
21183;SDS011;18176;49.502;11.754;2024-03-06T20:53:37;42.93;;;24.37;;
21183;SDS011;18176;49.502;11.754;2024-03-06T20:57:58;42.17;;;24.13;;
21183;SDS011;18176;49.502;11.754;2024-03-06T21:02:19;39.13;;;23.37;;
21183;SDS011;18176;49.502;11.754;2024-03-06T21:06:43;43.97;;;22.83;;
21183;SDS011;18176;49.502;11.754;2024-03-06T21:11:04;37.20;;;22.37;;
21183;SDS011;18176;49.502;11.754;2024-03-06T21:15:25;38.33;;;22.13;;
21183;SDS011;18176;49.502;11.754;2024-03-06T21:19:46;38.63;;;22.97;;
21183;SDS011;18176;49.502;11.754;2024-03-06T21:24:10;42.83;;;22.10;;
21183;SDS011;18176;49.502;11.754;2024-03-06T21:28:31;40.50;;;22.90;;
21183;SDS011;18176;49.502;11.754;2024-03-06T21:32:53;37.87;;;22.90;;
21183;SDS011;18176;49.502;11.754;2024-03-06T21:37:13;38.47;;;23.17;;
21183;SDS011;18176;49.502;11.754;2024-03-06T21:41:37;35.27;;;22.10;;
21183;SDS011;18176;49.502;11.754;2024-03-06T21:45:58;38.70;;;21.97;;
21183;SDS011;18176;49.502;11.754;2024-03-06T21:50:19;34.23;;;21.00;;
21183;SDS011;18176;49.502;11.754;2024-03-06T21:54:41;37.80;;;21.27;;
21183;SDS011;18176;49.502;11.754;2024-03-06T21:59:05;38.40;;;21.23;;
21183;SDS011;18176;49.502;11.754;2024-03-06T22:03:27;36.60;;;21.23;;
21183;SDS011;18176;49.502;11.754;2024-03-06T22:07:49;34.57;;;20.87;;
21183;SDS011;18176;49.502;11.754;2024-03-06T22:12:10;32.43;;;20.03;;
21183;SDS011;18176;49.502;11.754;2024-03-06T22:16:34;32.80;;;19.90;;
21183;SDS011;18176;49.502;11.754;2024-03-06T22:20:55;34.33;;;19.53;;
21183;SDS011;18176;49.502;11.754;2024-03-06T22:25:16;35.13;;;19.73;;
21183;SDS011;18176;49.502;11.754;2024-03-06T22:29:37;31.73;;;18.63;;
21183;SDS011;18176;49.502;11.754;2024-03-06T22:34:01;31.13;;;19.30;;
21183;SDS011;18176;49.502;11.754;2024-03-06T22:38:23;31.20;;;18.53;;
21183;SDS011;18176;49.502;11.754;2024-03-06T22:42:46;32.90;;;18.17;;
21183;SDS011;18176;49.502;11.754;2024-03-06T22:47:06;29.97;;;18.20;;
21183;SDS011;18176;49.502;11.754;2024-03-06T22:51:30;33.30;;;18.87;;
21183;SDS011;18176;49.502;11.754;2024-03-06T22:55:50;31.00;;;18.60;;
21183;SDS011;18176;49.502;11.754;2024-03-06T23:00:12;35.57;;;18.80;;
21183;SDS011;18176;49.502;11.754;2024-03-06T23:04:46;32.30;;;18.60;;
21183;SDS011;18176;49.502;11.754;2024-03-06T23:09:09;33.70;;;19.00;;
21183;SDS011;18176;49.502;11.754;2024-03-06T23:13:30;32.13;;;19.07;;
21183;SDS011;18176;49.502;11.754;2024-03-06T23:17:51;31.03;;;19.33;;
21183;SDS011;18176;49.502;11.754;2024-03-06T23:22:12;26.83;;;17.87;;
21183;SDS011;18176;49.502;11.754;2024-03-06T23:26:36;32.93;;;18.83;;
21183;SDS011;18176;49.502;11.754;2024-03-06T23:30:57;28.77;;;17.63;;
21183;SDS011;18176;49.502;11.754;2024-03-06T23:35:18;29.47;;;17.67;;
21183;SDS011;18176;49.502;11.754;2024-03-06T23:39:39;29.50;;;18.43;;
21183;SDS011;18176;49.502;11.754;2024-03-06T23:44:02;30.33;;;18.73;;
21183;SDS011;18176;49.502;11.754;2024-03-06T23:48:23;32.77;;;18.87;;
21183;SDS011;18176;49.502;11.754;2024-03-06T23:52:44;31.07;;;19.27;;
21183;SDS011;18176;49.502;11.754;2024-03-06T23:57:05;31.07;;;18.40;;
